sensor_id;sensor_type;location;lat;lon;timestamp;pressure;altitude;pressure_sealevel;temperature;humidity
19457;BME280;9867;48.094;11.478;2023-06-01T00:02:20;95277.22;;;16.46;100.00
19457;BME280;9867;48.094;11.478;2023-06-01T00:04:50;95277.91;;;16.42;100.00
19457;BME280;9867;48.094;11.478;2023-06-01T00:07:18;95271.59;;;16.37;100.00
19457;BME280;9867;48.094;11.478;2023-06-01T00:09:47;95278.19;;;16.28;100.00
19457;BME280;9867;48.094;11.478;2023-06-01T00:12:15;95275.59;;;16.17;100.00
19457;BME280;9867;48.094;11.478;2023-06-01T00:14:43;95280.53;;;16.07;100.00
19457;BME280;9867;48.094;11.478;2023-06-01T00:17:10;95275.50;;;16.00;100.00
19457;BME280;9867;48.094;11.478;2023-06-01T00:19:38;95287.44;;;16.01;100.00
19457;BME280;9867;48.094;11.478;2023-06-01T00:22:07;95285.84;;;16.00;100.00
19457;BME280;9867;48.094;11.478;2023-06-01T00:24:35;95291.59;;;16.02;100.00
19457;BME280;9867;48.094;11.478;2023-06-01T00:27:04;95286.66;;;16.00;100.00
19457;BME280;9867;48.094;11.478;2023-06-01T00:29:32;95290.13;;;15.94;100.00
19457;BME280;9867;48.094;11.478;2023-06-01T00:32:02;95284.50;;;15.86;100.00
19457;BME280;9867;48.094;11.478;2023-06-01T00:34:30;95281.34;;;15.84;100.00
19457;BME280;9867;48.094;11.478;2023-06-01T00:36:58;95273.94;;;15.76;100.00
19457;BME280;9867;48.094;11.478;2023-06-01T00:39:27;95284.16;;;15.71;100.00
19457;BME280;9867;48.094;11.478;2023-06-01T00:41:55;95275.38;;;15.83;100.00
19457;BME280;9867;48.094;11.478;2023-06-01T00:44:24;95276.16;;;15.84;100.00
19457;BME280;9867;48.094;11.478;2023-06-01T00:46:52;95269.31;;;15.89;100.00
19457;BME280;9867;48.094;11.478;2023-06-01T00:49:21;95275.38;;;15.83;100.00
19457;BME280;9867;48.094;11.478;2023-06-01T00:51:50;95270.78;;;15.85;100.00
19457;BME280;9867;48.094;11.478;2023-06-01T00:54:18;95264.16;;;15.78;100.00
19457;BME280;9867;48.094;11.478;2023-06-01T00:56:47;95272.00;;;15.71;100.00
19457;BME280;9867;48.094;11.478;2023-06-01T00:59:15;95268.97;;;15.62;100.00
19457;BME280;9867;48.094;11.478;2023-06-01T01:01:43;95272.09;;;15.53;100.00
19457;BME280;9867;48.094;11.478;2023-06-01T01:04:11;95274.00;;;15.46;100.00
19457;BME280;9867;48.094;11.478;2023-06-01T01:06:49;95272.06;;;15.29;100.00
19457;BME280;9867;48.094;11.478;2023-06-01T01:09:28;95266.31;;;15.27;100.00
19457;BME280;9867;48.094;11.478;2023-06-01T01:12:07;95274.22;;;15.32;100.00
19457;BME280;9867;48.094;11.478;2023-06-01T01:14:41;95269.78;;;15.21;100.00
19457;BME280;9867;48.094;11.478;2023-06-01T01:17:16;95265.63;;;15.20;100.00
19457;BME280;9867;48.094;11.478;2023-06-01T01:19:53;95258.34;;;15.29;100.00
19457;BME280;9867;48.094;11.478;2023-06-01T01:22:39;95243.72;;;15.11;100.00
19457;BME280;9867;48.094;11.478;2023-06-01T01:25:21;95267.63;;;15.18;100.00
19457;BME280;9867;48.094;11.478;2023-06-01T01:28:08;95264.09;;;15.31;100.00
19457;BME280;9867;48.094;11.478;2023-06-01T01:30:41;95268.84;;;15.04;100.00
19457;BME280;9867;48.094;11.478;2023-06-01T01:33:10;95264.59;;;15.10;100.00
19457;BME280;9867;48.094;11.478;2023-06-01T01:35:39;95257.75;;;15.15;100.00
19457;BME280;9867;48.094;11.478;2023-06-01T01:38:08;95266.97;;;15.11;100.00
19457;BME280;9867;48.094;11.478;2023-06-01T01:40:36;95262.16;;;14.85;100.00
19457;BME280;9867;48.094;11.478;2023-06-01T01:43:05;95266.09;;;14.39;100.00
19457;BME280;9867;48.094;11.478;2023-06-01T01:45:33;95264.28;;;14.21;100.00
19457;BME280;9867;48.094;11.478;2023-06-01T01:48:05;95265.44;;;14.25;100.00
19457;BME280;9867;48.094;11.478;2023-06-01T01:50:38;95267.75;;;14.52;100.00
19457;BME280;9867;48.094;11.478;2023-06-01T01:53:09;95268.13;;;14.67;100.00
19457;BME280;9867;48.094;11.478;2023-06-01T01:55:37;95266.88;;;14.58;100.00
19457;BME280;9867;48.094;11.478;2023-06-01T01:58:06;95266.66;;;14.59;100.00
19457;BME280;9867;48.094;11.478;2023-06-01T02:00:34;95265.44;;;14.62;100.00
19457;BME280;9867;48.094;11.478;2023-06-01T02:03:03;95266.66;;;14.59;100.00
19457;BME280;9867;48.094;11.478;2023-06-01T02:05:31;95271.25;;;14.39;100.00
19457;BME280;9867;48.094;11.478;2023-06-01T02:07:59;95271.25;;;14.39;100.00
19457;BME280;9867;48.094;11.478;2023-06-01T02:10:29;95265.06;;;14.22;100.00
19457;BME280;9867;48.094;11.478;2023-06-01T02:12:57;95264.22;;;14.10;100.00
19457;BME280;9867;48.094;11.478;2023-06-01T02:15:25;95270.13;;;14.17;100.00
19457;BME280;9867;48.094;11.478;2023-06-01T02:17:53;95264.44;;;14.08;100.00
19457;BME280;9867;48.094;11.478;2023-06-01T02:20:22;95261.81;;;14.15;100.00
19457;BME280;9867;48.094;11.478;2023-06-01T02:22:51;95273.41;;;14.06;100.00
19457;BME280;9867;48.094;11.478;2023-06-01T02:25:19;95264.81;;;14.12;100.00
19457;BME280;9867;48.094;11.478;2023-06-01T02:27:47;95260.56;;;14.17;100.00
19457;BME280;9867;48.094;11.478;2023-06-01T02:30:15;95263.81;;;14.13;100.00
19457;BME280;9867;48.094;11.478;2023-06-01T02:32:43;95268.03;;;14.07;100.00
19457;BME280;9867;48.094;11.478;2023-06-01T02:35:12;95256.28;;;14.11;100.00
19457;BME280;9867;48.094;11.478;2023-06-01T02:37:42;95264.22;;;14.10;100.00
19457;BME280;9867;48.094;11.478;2023-06-01T02:40:10;95264.44;;;14.08;100.00
19457;BME280;9867;48.094;11.478;2023-06-01T02:42:39;95256.19;;;13.81;100.00
19457;BME280;9867;48.094;11.478;2023-06-01T02:45:08;95257.81;;;13.94;100.00
19457;BME280;9867;48.094;11.478;2023-06-01T02:47:36;95259.06;;;13.91;100.00
19457;BME280;9867;48.094;11.478;2023-06-01T02:50:05;95259.50;;;13.88;100.00
19457;BME280;9867;48.094;11.478;2023-06-01T02:52:36;95258.28;;;13.91;100.00
19457;BME280;9867;48.094;11.478;2023-06-01T02:55:07;95260.84;;;13.91;100.00
19457;BME280;9867;48.094;11.478;2023-06-01T02:58:00;95258.13;;;14.04;100.00
19457;BME280;9867;48.094;11.478;2023-06-01T03:00:37;95256.63;;;13.96;100.00
19457;BME280;9867;48.094;11.478;2023-06-01T03:03:04;95264.13;;;13.98;100.00
19457;BME280;9867;48.094;11.478;2023-06-01T03:05:32;95266.88;;;14.03;100.00
19457;BME280;9867;48.094;11.478;2023-06-01T03:08:29;95274.47;;;13.98;100.00
19457;BME280;9867;48.094;11.478;2023-06-01T03:10:58;95267.97;;;13.71;100.00
19457;BME280;9867;48.094;11.478;2023-06-01T03:13:32;95263.72;;;13.33;100.00
19457;BME280;9867;48.094;11.478;2023-06-01T03:16:01;95269.00;;;13.13;100.00
19457;BME280;9867;48.094;11.478;2023-06-01T03:18:29;95268.72;;;13.28;100.00
19457;BME280;9867;48.094;11.478;2023-06-01T03:20:57;95265.50;;;13.01;100.00
19457;BME280;9867;48.094;11.478;2023-06-01T03:23:25;95259.75;;;13.37;100.00
19457;BME280;9867;48.094;11.478;2023-06-01T03:25:54;95261.56;;;13.55;100.00
19457;BME280;9867;48.094;11.478;2023-06-01T03:28:25;95265.63;;;13.69;100.00
19457;BME280;9867;48.094;11.478;2023-06-01T03:30:52;95266.41;;;13.70;100.00
19457;BME280;9867;48.094;11.478;2023-06-01T03:33:20;95263.91;;;13.81;100.00
19457;BME280;9867;48.094;11.478;2023-06-01T03:35:48;95271.34;;;13.71;100.00
19457;BME280;9867;48.094;11.478;2023-06-01T03:38:17;95259.91;;;13.67;100.00
19457;BME280;9867;48.094;11.478;2023-06-01T03:40:45;95255.75;;;13.66;100.00
19457;BME280;9867;48.094;11.478;2023-06-01T03:43:12;95265.25;;;13.65;100.00
19457;BME280;9867;48.094;11.478;2023-06-01T03:45:42;95267.47;;;13.62;100.00
19457;BME280;9867;48.094;11.478;2023-06-01T03:48:10;95269.31;;;13.55;100.00
19457;BME280;9867;48.094;11.478;2023-06-01T03:50:38;95271.88;;;13.55;100.00
19457;BME280;9867;48.094;11.478;2023-06-01T03:53:06;95282.50;;;13.65;100.00
19457;BME280;9867;48.094;11.478;2023-06-01T03:55:35;95270.63;;;13.64;100.00
19457;BME280;9867;48.094;11.478;2023-06-01T03:58:14;95264.94;;;13.55;100.00
19457;BME280;9867;48.094;11.478;2023-06-01T04:00:44;95270.50;;;13.52;100.00
19457;BME280;9867;48.094;11.478;2023-06-01T04:03:14;95269.03;;;13.63;100.00
19457;BME280;9867;48.094;11.478;2023-06-01T04:05:42;95267.84;;;13.65;100.00
19457;BME280;9867;48.094;11.478;2023-06-01T04:08:16;95273.91;;;13.71;100.00
19457;BME280;9867;48.094;11.478;2023-06-01T04:10:46;95273.75;;;13.91;100.00
19457;BME280;9867;48.094;11.478;2023-06-01T04:13:14;95276.84;;;13.75;100.00
19457;BME280;9867;48.094;11.478;2023-06-01T04:15:44;95276.09;;;13.49;100.00
19457;BME280;9867;48.094;11.478;2023-06-01T04:18:15;95276.16;;;13.43;100.00
19457;BME280;9867;48.094;11.478;2023-06-01T04:20:51;95272.63;;;13.37;100.00
19457;BME280;9867;48.094;11.478;2023-06-01T04:23:19;95270.94;;;13.49;100.00
19457;BME280;9867;48.094;11.478;2023-06-01T04:25:47;95278.81;;;13.79;100.00
19457;BME280;9867;48.094;11.478;2023-06-01T04:28:18;95275.63;;;14.02;100.00
19457;BME280;9867;48.094;11.478;2023-06-01T04:30:48;95278.34;;;14.25;100.00
19457;BME280;9867;48.094;11.478;2023-06-01T04:33:18;95274.06;;;14.38;100.00
19457;BME280;9867;48.094;11.478;2023-06-01T04:35:46;95283.38;;;14.39;100.00
19457;BME280;9867;48.094;11.478;2023-06-01T04:38:14;95276.91;;;14.48;100.00
19457;BME280;9867;48.094;11.478;2023-06-01T04:40:44;95275.63;;;14.57;100.00
19457;BME280;9867;48.094;11.478;2023-06-01T04:43:12;95277.56;;;14.25;100.00
19457;BME280;9867;48.094;11.478;2023-06-01T04:45:47;95278.13;;;14.09;100.00
19457;BME280;9867;48.094;11.478;2023-06-01T04:48:16;95287.81;;;14.13;100.00
19457;BME280;9867;48.094;11.478;2023-06-01T04:50:53;95277.78;;;14.42;100.00
19457;BME280;9867;48.094;11.478;2023-06-01T04:53:21;95271.28;;;14.69;100.00
19457;BME280;9867;48.094;11.478;2023-06-01T04:55:49;95273.19;;;14.92;100.00
19457;BME280;9867;48.094;11.478;2023-06-01T04:58:17;95275.81;;;15.04;100.00
19457;BME280;9867;48.094;11.478;2023-06-01T05:00:45;95274.03;;;15.04;100.00
19457;BME280;9867;48.094;11.478;2023-06-01T05:03:16;95268.16;;;14.97;100.00
19457;BME280;9867;48.094;11.478;2023-06-01T05:05:44;95270.72;;;14.97;100.00
19457;BME280;9867;48.094;11.478;2023-06-01T05:08:13;95272.66;;;15.01;100.00
19457;BME280;9867;48.094;11.478;2023-06-01T05:10:41;95270.72;;;15.27;100.00
19457;BME280;9867;48.094;11.478;2023-06-01T05:13:09;95275.88;;;15.39;100.00
19457;BME280;9867;48.094;11.478;2023-06-01T05:15:38;95268.09;;;15.57;100.00
19457;BME280;9867;48.094;11.478;2023-06-01T05:18:05;95269.75;;;15.63;100.00
19457;BME280;9867;48.094;11.478;2023-06-01T05:20:35;95277.47;;;15.40;100.00
19457;BME280;9867;48.094;11.478;2023-06-01T05:23:04;95270.19;;;15.48;100.00
19457;BME280;9867;48.094;11.478;2023-06-01T05:25:32;95276.63;;;15.57;100.00
19457;BME280;9867;48.094;11.478;2023-06-01T05:28:00;95278.31;;;15.63;100.00
19457;BME280;9867;48.094;11.478;2023-06-01T05:30:29;95275.38;;;15.60;100.00
19457;BME280;9867;48.094;11.478;2023-06-01T05:32:57;95277.63;;;15.68;100.00
19457;BME280;9867;48.094;11.478;2023-06-01T05:35:25;95274.84;;;15.81;100.00
19457;BME280;9867;48.094;11.478;2023-06-01T05:37:54;95280.09;;;15.86;100.00
19457;BME280;9867;48.094;11.478;2023-06-01T05:40:22;95275.38;;;16.07;100.00
19457;BME280;9867;48.094;11.478;2023-06-01T05:42:50;95282.00;;;16.14;100.00
19457;BME280;9867;48.094;11.478;2023-06-01T05:45:18;95279.84;;;16.34;100.00
19457;BME280;9867;48.094;11.478;2023-06-01T05:47:46;95280.94;;;16.38;100.00
19457;BME280;9867;48.094;11.478;2023-06-01T05:50:19;95278.47;;;16.32;100.00
19457;BME280;9867;48.094;11.478;2023-06-01T05:52:47;95276.63;;;16.56;100.00
19457;BME280;9867;48.094;11.478;2023-06-01T05:55:16;95278.66;;;16.65;100.00
19457;BME280;9867;48.094;11.478;2023-06-01T05:57:44;95279.22;;;16.67;100.00
19457;BME280;9867;48.094;11.478;2023-06-01T06:00:13;95278.31;;;16.74;100.00
19457;BME280;9867;48.094;11.478;2023-06-01T06:02:42;95281.47;;;16.76;100.00
19457;BME280;9867;48.094;11.478;2023-06-01T06:05:10;95286.69;;;16.92;100.00
19457;BME280;9867;48.094;11.478;2023-06-01T06:07:38;95282.69;;;16.73;100.00
19457;BME280;9867;48.094;11.478;2023-06-01T06:10:07;95282.16;;;16.71;100.00
19457;BME280;9867;48.094;11.478;2023-06-01T06:12:37;95282.88;;;16.83;100.00
19457;BME280;9867;48.094;11.478;2023-06-01T06:15:05;95279.06;;;17.02;100.00
19457;BME280;9867;48.094;11.478;2023-06-01T06:17:33;95275.09;;;17.12;100.00
19457;BME280;9867;48.094;11.478;2023-06-01T06:20:02;95284.03;;;17.04;100.00
19457;BME280;9867;48.094;11.478;2023-06-01T06:22:33;95288.38;;;17.15;100.00
19457;BME280;9867;48.094;11.478;2023-06-01T06:25:01;95286.09;;;17.19;100.00
19457;BME280;9867;48.094;11.478;2023-06-01T06:27:29;95293.19;;;17.40;100.00
19457;BME280;9867;48.094;11.478;2023-06-01T06:29:58;95287.69;;;17.20;100.00
19457;BME280;9867;48.094;11.478;2023-06-01T06:32:26;95285.34;;;17.35;100.00
19457;BME280;9867;48.094;11.478;2023-06-01T06:34:54;95291.31;;;17.52;100.00
19457;BME280;9867;48.094;11.478;2023-06-01T06:37:22;95296.31;;;17.70;100.00
19457;BME280;9867;48.094;11.478;2023-06-01T06:39:50;95284.13;;;17.71;100.00
19457;BME280;9867;48.094;11.478;2023-06-01T06:42:18;95293.69;;;17.87;100.00
19457;BME280;9867;48.094;11.478;2023-06-01T06:44:45;95292.53;;;17.95;100.00
19457;BME280;9867;48.094;11.478;2023-06-01T06:47:15;95290.59;;;18.07;100.00
19457;BME280;9867;48.094;11.478;2023-06-01T06:49:46;95294.56;;;17.93;100.00
19457;BME280;9867;48.094;11.478;2023-06-01T06:52:14;95293.31;;;17.79;100.00
19457;BME280;9867;48.094;11.478;2023-06-01T06:54:42;95294.56;;;17.93;100.00
19457;BME280;9867;48.094;11.478;2023-06-01T06:57:10;95299.19;;;18.08;100.00
19457;BME280;9867;48.094;11.478;2023-06-01T06:59:39;95302.19;;;18.21;100.00
19457;BME280;9867;48.094;11.478;2023-06-01T07:02:06;95296.97;;;18.16;100.00
19457;BME280;9867;48.094;11.478;2023-06-01T07:04:36;95299.38;;;18.23;100.00
19457;BME280;9867;48.094;11.478;2023-06-01T07:07:04;95296.31;;;18.48;100.00
19457;BME280;9867;48.094;11.478;2023-06-01T07:09:32;95289.03;;;18.06;100.00
19457;BME280;9867;48.094;11.478;2023-06-01T07:12:00;95288.06;;;18.12;100.00
19457;BME280;9867;48.094;11.478;2023-06-01T07:14:28;95288.19;;;18.22;100.00
19457;BME280;9867;48.094;11.478;2023-06-01T07:16:56;95286.22;;;18.29;100.00
19457;BME280;9867;48.094;11.478;2023-06-01T07:19:24;95293.94;;;18.24;100.00
19457;BME280;9867;48.094;11.478;2023-06-01T07:21:53;95283.63;;;18.51;100.00
19457;BME280;9867;48.094;11.478;2023-06-01T07:24:21;95281.34;;;18.77;100.00
19457;BME280;9867;48.094;11.478;2023-06-01T07:26:49;95292.13;;;18.90;100.00
19457;BME280;9867;48.094;11.478;2023-06-01T07:29:18;95281.38;;;19.03;100.00
19457;BME280;9867;48.094;11.478;2023-06-01T07:31:45;95278.84;;;19.14;100.00
19457;BME280;9867;48.094;11.478;2023-06-01T07:34:13;95281.91;;;19.32;100.00
19457;BME280;9867;48.094;11.478;2023-06-01T07:36:41;95284.31;;;19.12;100.00
19457;BME280;9867;48.094;11.478;2023-06-01T07:39:13;95282.69;;;19.38;100.00
19457;BME280;9867;48.094;11.478;2023-06-01T07:41:44;95281.41;;;19.67;100.00
19457;BME280;9867;48.094;11.478;2023-06-01T07:44:12;95289.94;;;19.58;100.00
19457;BME280;9867;48.094;11.478;2023-06-01T07:46:45;95276.75;;;19.42;100.00
19457;BME280;9867;48.094;11.478;2023-06-01T07:49:13;95281.91;;;19.64;100.00
19457;BME280;9867;48.094;11.478;2023-06-01T07:51:42;95292.44;;;19.48;100.00
19457;BME280;9867;48.094;11.478;2023-06-01T07:54:10;95284.75;;;19.63;100.00
19457;BME280;9867;48.094;11.478;2023-06-01T07:56:39;95283.41;;;19.92;100.00
19457;BME280;9867;48.094;11.478;2023-06-01T07:59:09;95280.13;;;20.07;100.00
19457;BME280;9867;48.094;11.478;2023-06-01T08:01:37;95285.38;;;19.75;100.00
19457;BME280;9867;48.094;11.478;2023-06-01T08:04:05;95280.91;;;19.70;100.00
19457;BME280;9867;48.094;11.478;2023-06-01T08:06:33;95277.53;;;20.12;100.00
19457;BME280;9867;48.094;11.478;2023-06-01T08:09:04;95282.84;;;20.27;100.00
19457;BME280;9867;48.094;11.478;2023-06-01T08:11:32;95276.81;;;20.22;100.00
19457;BME280;9867;48.094;11.478;2023-06-01T08:14:01;95285.97;;;20.29;100.00
19457;BME280;9867;48.094;11.478;2023-06-01T08:16:31;95283.75;;;20.58;100.00
19457;BME280;9867;48.094;11.478;2023-06-01T08:18:59;95285.06;;;20.51;100.00
19457;BME280;9867;48.094;11.478;2023-06-01T08:21:27;95282.81;;;20.74;99.27
19457;BME280;9867;48.094;11.478;2023-06-01T08:23:55;95278.91;;;20.77;99.38
19457;BME280;9867;48.094;11.478;2023-06-01T08:26:24;95274.25;;;21.04;100.00
19457;BME280;9867;48.094;11.478;2023-06-01T08:28:52;95267.69;;;20.87;96.39
19457;BME280;9867;48.094;11.478;2023-06-01T08:31:24;95273.69;;;20.82;89.83
19457;BME280;9867;48.094;11.478;2023-06-01T08:33:52;95272.16;;;21.06;95.04
19457;BME280;9867;48.094;11.478;2023-06-01T08:36:21;95275.38;;;21.34;92.38
19457;BME280;9867;48.094;11.478;2023-06-01T08:38:49;95280.34;;;21.40;89.80
19457;BME280;9867;48.094;11.478;2023-06-01T08:41:24;95274.31;;;21.55;82.80
19457;BME280;9867;48.094;11.478;2023-06-01T08:43:54;95273.53;;;21.75;83.53
19457;BME280;9867;48.094;11.478;2023-06-01T08:46:28;95275.63;;;21.68;79.05
19457;BME280;9867;48.094;11.478;2023-06-01T08:48:59;95271.16;;;22.04;80.17
19457;BME280;9867;48.094;11.478;2023-06-01T08:51:28;95263.78;;;22.26;82.10
19457;BME280;9867;48.094;11.478;2023-06-01T08:53:57;95276.59;;;22.33;85.20
19457;BME280;9867;48.094;11.478;2023-06-01T08:56:29;95274.25;;;22.21;79.46
19457;BME280;9867;48.094;11.478;2023-06-01T08:58:59;95260.13;;;22.27;80.29
19457;BME280;9867;48.094;11.478;2023-06-01T09:01:29;95275.81;;;22.22;84.89
19457;BME280;9867;48.094;11.478;2023-06-01T09:03:57;95276.06;;;22.26;80.46
19457;BME280;9867;48.094;11.478;2023-06-01T09:06:25;95275.38;;;21.54;82.23
19457;BME280;9867;48.094;11.478;2023-06-01T09:08:53;95274.56;;;21.94;87.75
19457;BME280;9867;48.094;11.478;2023-06-01T09:11:22;95275.59;;;22.19;82.52
19457;BME280;9867;48.094;11.478;2023-06-01T09:13:50;95274.50;;;22.30;80.15
19457;BME280;9867;48.094;11.478;2023-06-01T09:16:17;95271.72;;;22.70;79.24
19457;BME280;9867;48.094;11.478;2023-06-01T09:18:54;95271.56;;;23.06;72.61
19457;BME280;9867;48.094;11.478;2023-06-01T09:21:22;95265.97;;;23.18;70.26
19457;BME280;9867;48.094;11.478;2023-06-01T09:23:50;95265.56;;;23.39;69.50
19457;BME280;9867;48.094;11.478;2023-06-01T09:26:25;95266.81;;;23.52;69.65
19457;BME280;9867;48.094;11.478;2023-06-01T09:28:55;95268.06;;;23.21;69.52
19457;BME280;9867;48.094;11.478;2023-06-01T09:31:37;95270.91;;;23.29;76.82
19457;BME280;9867;48.094;11.478;2023-06-01T09:34:08;95263.38;;;23.18;76.49
19457;BME280;9867;48.094;11.478;2023-06-01T09:36:38;95262.41;;;23.42;75.70
19457;BME280;9867;48.094;11.478;2023-06-01T09:39:07;95269.97;;;23.49;71.13
19457;BME280;9867;48.094;11.478;2023-06-01T09:41:45;95266.69;;;23.33;73.26
19457;BME280;9867;48.094;11.478;2023-06-01T09:44:14;95267.75;;;23.27;74.72
19457;BME280;9867;48.094;11.478;2023-06-01T09:46:50;95266.84;;;23.42;73.23
19457;BME280;9867;48.094;11.478;2023-06-01T09:49:21;95256.94;;;23.39;75.26
19457;BME280;9867;48.094;11.478;2023-06-01T09:51:52;95261.19;;;23.30;82.57
19457;BME280;9867;48.094;11.478;2023-06-01T09:54:28;95256.34;;;23.52;77.62
19457;BME280;9867;48.094;11.478;2023-06-01T09:56:56;95258.97;;;23.81;75.52
19457;BME280;9867;48.094;11.478;2023-06-01T09:59:41;95259.81;;;23.76;74.81
19457;BME280;9867;48.094;11.478;2023-06-01T10:02:14;95253.91;;;24.13;76.13
19457;BME280;9867;48.094;11.478;2023-06-01T10:04:50;95251.47;;;24.27;69.00
19457;BME280;9867;48.094;11.478;2023-06-01T10:07:21;95247.28;;;24.21;70.51
19457;BME280;9867;48.094;11.478;2023-06-01T10:09:51;95244.28;;;24.09;76.57
19457;BME280;9867;48.094;11.478;2023-06-01T10:12:19;95247.00;;;23.99;73.74
19457;BME280;9867;48.094;11.478;2023-06-01T10:14:48;95240.28;;;23.88;71.66
19457;BME280;9867;48.094;11.478;2023-06-01T10:17:17;95241.69;;;23.80;69.02
19457;BME280;9867;48.094;11.478;2023-06-01T10:19:46;95246.06;;;24.13;78.19
19457;BME280;9867;48.094;11.478;2023-06-01T10:22:15;95244.13;;;24.48;67.42
19457;BME280;9867;48.094;11.478;2023-06-01T10:24:43;95242.06;;;24.45;71.56
19457;BME280;9867;48.094;11.478;2023-06-01T10:27:24;95234.19;;;24.21;68.55
19457;BME280;9867;48.094;11.478;2023-06-01T10:29:53;95237.50;;;24.08;66.40
19457;BME280;9867;48.094;11.478;2023-06-01T10:32:40;95226.91;;;24.13;72.66
19457;BME280;9867;48.094;11.478;2023-06-01T10:38:31;95229.84;;;24.78;64.33
19457;BME280;9867;48.094;11.478;2023-06-01T10:41:25;95227.19;;;24.59;61.09
19457;BME280;9867;48.094;11.478;2023-06-01T10:43:54;95226.13;;;25.03;64.37
19457;BME280;9867;48.094;11.478;2023-06-01T10:46:39;95227.75;;;25.50;58.58
19457;BME280;9867;48.094;11.478;2023-06-01T10:49:11;95226.63;;;25.37;65.01
19457;BME280;9867;48.094;11.478;2023-06-01T10:51:41;95223.72;;;25.39;60.46
19457;BME280;9867;48.094;11.478;2023-06-01T10:54:29;95233.75;;;25.18;59.42
19457;BME280;9867;48.094;11.478;2023-06-01T10:57:17;95222.31;;;25.28;58.23
19457;BME280;9867;48.094;11.478;2023-06-01T11:00:15;95219.38;;;25.62;57.86
19457;BME280;9867;48.094;11.478;2023-06-01T11:02:53;95224.94;;;25.28;56.04
19457;BME280;9867;48.094;11.478;2023-06-01T11:05:37;95222.09;;;25.89;59.59
19457;BME280;9867;48.094;11.478;2023-06-01T11:08:07;95219.38;;;25.48;53.74
19457;BME280;9867;48.094;11.478;2023-06-01T11:10:54;95217.28;;;25.12;57.10
19457;BME280;9867;48.094;11.478;2023-06-01T11:13:26;95203.34;;;25.31;56.48
19457;BME280;9867;48.094;11.478;2023-06-01T11:16:28;95209.59;;;25.35;56.70
19457;BME280;9867;48.094;11.478;2023-06-01T11:18:56;95196.13;;;24.85;54.35
19457;BME280;9867;48.094;11.478;2023-06-01T11:21:29;95199.03;;;25.54;55.21
19457;BME280;9867;48.094;11.478;2023-06-01T11:23:59;95198.16;;;25.58;53.63
19457;BME280;9867;48.094;11.478;2023-06-01T11:26:32;95196.09;;;25.55;50.40
19457;BME280;9867;48.094;11.478;2023-06-01T11:29:19;95184.78;;;26.28;51.38
19457;BME280;9867;48.094;11.478;2023-06-01T11:31:50;95191.34;;;26.17;53.20
19457;BME280;9867;48.094;11.478;2023-06-01T11:34:29;95186.75;;;26.36;50.80
19457;BME280;9867;48.094;11.478;2023-06-01T11:36:58;95184.31;;;25.85;49.24
19457;BME280;9867;48.094;11.478;2023-06-01T11:39:28;95188.19;;;26.01;50.90
19457;BME280;9867;48.094;11.478;2023-06-01T11:42:04;95178.19;;;26.44;53.12
19457;BME280;9867;48.094;11.478;2023-06-01T11:44:33;95174.59;;;27.12;49.92
19457;BME280;9867;48.094;11.478;2023-06-01T11:47:02;95174.50;;;27.26;47.81
19457;BME280;9867;48.094;11.478;2023-06-01T11:49:31;95183.41;;;26.58;44.83
19457;BME280;9867;48.094;11.478;2023-06-01T11:52:01;95174.06;;;26.25;49.38
19457;BME280;9867;48.094;11.478;2023-06-01T11:54:30;95175.91;;;26.52;50.62
19457;BME280;9867;48.094;11.478;2023-06-01T11:56:58;95170.94;;;26.23;46.49
19457;BME280;9867;48.094;11.478;2023-06-01T11:59:26;95179.25;;;26.30;48.02
19457;BME280;9867;48.094;11.478;2023-06-01T12:01:55;95170.47;;;26.84;46.76
19457;BME280;9867;48.094;11.478;2023-06-01T12:04:23;95163.25;;;27.34;46.79
19457;BME280;9867;48.094;11.478;2023-06-01T12:07:03;95162.72;;;27.77;43.00
19457;BME280;9867;48.094;11.478;2023-06-01T12:09:34;95170.50;;;27.29;42.52
19457;BME280;9867;48.094;11.478;2023-06-01T12:12:04;95163.50;;;27.02;43.43
19457;BME280;9867;48.094;11.478;2023-06-01T12:14:32;95162.41;;;27.03;44.83
19457;BME280;9867;48.094;11.478;2023-06-01T12:17:00;95161.38;;;26.90;43.77
19457;BME280;9867;48.094;11.478;2023-06-01T12:19:30;95155.50;;;26.93;42.48
19457;BME280;9867;48.094;11.478;2023-06-01T12:21:59;95156.50;;;27.50;42.61
19457;BME280;9867;48.094;11.478;2023-06-01T12:24:28;95157.09;;;27.70;44.46
19457;BME280;9867;48.094;11.478;2023-06-01T12:26:59;95163.78;;;27.76;44.93
19457;BME280;9867;48.094;11.478;2023-06-01T12:29:37;95148.88;;;27.71;40.75
19457;BME280;9867;48.094;11.478;2023-06-01T12:32:06;95150.56;;;27.67;43.33
19457;BME280;9867;48.094;11.478;2023-06-01T12:34:35;95147.53;;;27.91;41.36
19457;BME280;9867;48.094;11.478;2023-06-01T12:37:16;95159.75;;;27.47;41.10
19457;BME280;9867;48.094;11.478;2023-06-01T12:39:51;95150.44;;;27.19;41.36
19457;BME280;9867;48.094;11.478;2023-06-01T12:42:34;95149.97;;;26.95;41.41
19457;BME280;9867;48.094;11.478;2023-06-01T12:45:05;95138.69;;;26.80;42.83
19457;BME280;9867;48.094;11.478;2023-06-01T12:47:36;95133.84;;;26.96;40.24
19457;BME280;9867;48.094;11.478;2023-06-01T12:50:06;95133.47;;;27.34;40.87
19457;BME280;9867;48.094;11.478;2023-06-01T12:52:35;95134.47;;;27.46;42.97
19457;BME280;9867;48.094;11.478;2023-06-01T12:55:04;95130.59;;;27.75;42.12
19457;BME280;9867;48.094;11.478;2023-06-01T12:57:34;95125.34;;;27.83;39.30
19457;BME280;9867;48.094;11.478;2023-06-01T13:00:03;95132.09;;;27.67;40.68
19457;BME280;9867;48.094;11.478;2023-06-01T13:02:33;95124.53;;;27.74;39.29
19457;BME280;9867;48.094;11.478;2023-06-01T13:05:02;95133.44;;;27.03;38.45
19457;BME280;9867;48.094;11.478;2023-06-01T13:07:31;95125.00;;;27.14;39.70
19457;BME280;9867;48.094;11.478;2023-06-01T13:10:00;95118.31;;;27.62;41.63
19457;BME280;9867;48.094;11.478;2023-06-01T13:12:28;95114.06;;;28.00;44.37
19457;BME280;9867;48.094;11.478;2023-06-01T13:14:57;95114.97;;;27.96;41.13